Time;durP1;ratioP1;P1;durP2;ratioP2;P2;SDS_P1;SDS_P2;PMS_P1;PMS_P2;Temp;Humidity;BMP_temperature;BMP_pressure;BME280_temperature;BME280_humidity;BME280_pressure;Samples;Min_cycle;Max_cycle;Signal;HPM_P1;HPM_P2
2022/06/16 00:00:39;;;;;;;2.57;2.07;;;25.30;41.80;;;25.75;30.26;98565.63;4859404;28;119173;-91
2022/06/16 00:03:08;;;;;;;2.57;2.37;;;25.20;41.70;;;25.72;30.59;98574.16;4864334;28;124066;-90
2022/06/16 00:05:38;;;;;;;2.40;2.20;;;25.20;41.80;;;25.68;30.58;98573.38;4855678;28;123717;-91
2022/06/16 00:08:07;;;;;;;4.97;3.23;;;25.10;41.90;;;25.65;30.70;98574.22;4856287;28;119301;-91
2022/06/16 00:10:35;;;;;;;5.57;3.43;;;25.10;42.00;;;25.63;30.74;98571.00;4847488;28;119052;-90
2022/06/16 00:13:02;;;;;;;3.37;2.27;;;25.10;42.00;;;25.61;30.54;98574.28;4863659;28;124351;-91
2022/06/16 00:15:30;;;;;;;4.07;3.30;;;25.10;42.10;;;25.59;31.04;98575.91;4872834;28;122221;-90
2022/06/16 00:17:58;;;;;;;3.30;2.60;;;25.00;42.10;;;25.54;30.63;98575.13;4860176;28;119882;-90
2022/06/16 00:20:27;;;;;;;2.30;2.10;;;25.00;42.30;;;25.50;30.85;98574.38;4873585;28;118711;-91
2022/06/16 00:22:54;;;;;;;3.13;2.60;;;25.00;42.30;;;25.47;30.75;98568.75;4859701;28;124038;-90
2022/06/16 00:25:20;;;;;;;2.33;2.13;;;25.00;42.40;;;25.44;30.85;98576.06;4860738;28;123262;-90
2022/06/16 00:27:50;;;;;;;2.50;2.30;;;24.90;42.40;;;25.40;31.27;98575.28;4851899;28;119334;-89
2022/06/16 00:30:17;;;;;;;4.87;2.83;;;24.90;42.40;;;25.36;30.94;98571.66;4853298;28;118711;-91
2022/06/16 00:32:52;;;;;;;4.03;2.70;;;24.90;42.60;;;25.32;31.30;98570.91;4850068;28;124058;-90
2022/06/16 00:35:20;;;;;;;3.00;2.20;;;24.80;42.60;;;25.28;30.94;98567.28;4854385;28;123400;-91
2022/06/16 00:37:47;;;;;;;2.57;2.30;;;24.80;42.70;;;25.26;31.25;98564.09;4863493;28;120372;-91
2022/06/16 00:40:14;;;;;;;2.80;2.30;;;24.70;42.60;;;25.22;31.53;98561.28;4857269;28;119692;-91
2022/06/16 00:42:44;;;;;;;3.80;2.37;;;24.70;42.80;;;25.19;31.47;98569.81;4843210;28;124085;-93
2022/06/16 00:45:48;;;;;;;2.13;1.93;;;24.70;43.10;;;25.14;31.47;98573.84;4854441;28;122963;-91
2022/06/16 00:48:31;;;;;;;3.40;2.80;;;24.70;43.00;;;25.10;31.24;98567.44;4867146;28;119227;-90
2022/06/16 00:51:22;;;;;;;2.50;1.90;;;24.60;43.00;;;25.07;31.57;98562.63;4826746;29;119253;-91
2022/06/16 00:53:49;;;;;;;2.70;1.73;;;24.50;43.00;;;25.02;31.45;98563.84;4858624;28;123921;-91
2022/06/16 00:56:28;;;;;;;3.40;2.30;;;24.50;43.00;;;24.99;31.56;98570.34;4838234;28;123538;-91
2022/06/16 00:59:02;;;;;;;2.50;2.20;;;24.50;43.10;;;24.97;31.54;98569.94;4852502;28;118756;-91
2022/06/16 01:01:30;;;;;;;2.60;2.10;;;24.40;43.10;;;24.95;31.54;98566.72;4864729;28;119018;-90
2022/06/16 01:07:09;;;;;;;2.43;2.13;;;24.40;43.30;;;24.86;31.67;98557.91;4780066;29;124719;-91
2022/06/16 01:09:37;;;;;;;2.20;2.00;;;24.30;43.30;;;24.83;31.77;98553.91;4800550;29;119077;-91
2022/06/16 01:15:59;;;;;;;3.57;2.30;;;24.30;43.50;;;24.72;31.96;98566.47;4842895;28;124607;-92
2022/06/16 01:18:53;;;;;;;2.27;2.07;;;24.20;43.40;;;24.67;31.66;98562.88;4856577;28;124360;-91
2022/06/16 01:21:37;;;;;;;4.47;3.93;;;24.20;43.50;;;24.63;31.93;98567.75;4853081;28;119723;-91
2022/06/16 01:24:28;;;;;;;3.20;2.90;;;24.10;43.40;;;24.58;31.98;98568.19;4837023;28;118897;-91
2022/06/16 01:27:40;;;;;;;3.83;3.00;;;24.00;43.40;;;24.50;31.98;98563.78;4851589;28;124168;-90
2022/06/16 01:30:15;;;;;;;9.20;2.80;;;24.00;43.50;;;24.50;31.99;98560.16;4849134;28;124055;-91
2022/06/16 01:33:03;;;;;;;2.50;2.30;;;23.90;43.60;;;24.46;32.25;98565.84;4851198;28;120311;-91
2022/06/16 01:35:51;;;;;;;3.77;2.03;;;23.90;43.70;;;24.44;32.02;98559.78;4850201;28;119969;-90
2022/06/16 01:39:03;;;;;;;2.10;2.00;;;23.90;43.80;;;24.39;32.11;98560.97;4862517;28;123041;-92
2022/06/16 01:41:41;;;;;;;2.50;2.30;;;23.90;43.90;;;24.38;32.28;98562.22;4843318;28;122410;-91
2022/06/16 01:44:16;;;;;;;1.87;1.73;;;23.80;43.80;;;24.38;32.43;98555.75;4860709;28;120387;-91
2022/06/16 01:46:45;;;;;;;2.07;1.87;;;23.80;43.90;;;24.37;32.28;98554.97;4848673;28;119273;-91
2022/06/16 01:49:49;;;;;;;3.83;1.80;;;23.80;43.80;;;24.32;32.27;98549.75;4844721;28;123819;-90
2022/06/16 01:52:35;;;;;;;2.27;2.07;;;23.80;43.80;;;24.31;32.38;98550.16;4829871;28;123457;-91
2022/06/16 01:55:09;;;;;;;4.10;2.30;;;23.70;43.90;;;24.21;32.56;98549.78;4842671;28;119054;-91
2022/06/16 01:57:43;;;;;;;2.70;2.20;;;23.70;44.30;;;24.16;32.72;98547.41;4851269;28;117723;-91
2022/06/16 02:00:12;;;;;;;3.03;1.90;;;23.60;44.30;;;24.13;32.88;98544.59;4847379;28;124202;-90
2022/06/16 02:02:41;;;;;;;3.43;2.30;;;23.60;44.50;;;24.09;32.97;98550.25;4855335;28;123557;-91
2022/06/16 02:05:25;;;;;;;2.40;2.00;;;23.60;44.70;;;24.06;33.07;98539.78;4860562;28;119887;-90
2022/06/16 02:08:20;;;;;;;2.23;2.00;;;23.60;45.00;;;24.04;33.35;98539.38;4854994;28;119471;-91
2022/06/16 02:11:14;;;;;;;2.23;2.03;;;23.50;45.20;;;23.99;33.36;98532.16;4845466;28;124126;-90
2022/06/16 02:14:12;;;;;;;2.17;1.93;;;23.50;45.30;;;23.99;33.53;98540.63;4838535;28;124489;-91
2022/06/16 02:16:43;;;;;;;2.37;2.00;;;23.50;45.50;;;23.98;33.69;98539.00;4837595;28;119702;-90
2022/06/16 02:19:19;;;;;;;1.83;1.73;;;23.40;45.50;;;23.97;33.63;98542.25;4838726;28;119377;-90
2022/06/16 02:21:50;;;;;;;2.70;2.30;;;23.40;45.70;;;23.94;33.91;98538.22;4837357;28;124212;-90
2022/06/16 02:24:21;;;;;;;2.10;1.90;;;23.40;45.70;;;23.93;33.78;98535.78;4848054;29;123082;-90
2022/06/16 02:26:50;;;;;;;2.40;2.00;;;23.40;45.80;;;23.92;33.92;98534.19;4826983;29;120434;-91
2022/06/16 02:29:33;;;;;;;1.80;1.70;;;23.40;45.90;;;23.89;33.82;98535.81;4842197;28;120504;-92
2022/06/16 02:32:17;;;;;;;3.47;2.33;;;23.40;45.90;;;23.86;33.98;98524.53;4838948;28;124093;-89
2022/06/16 02:35:38;;;;;;;2.37;2.07;;;23.30;46.00;;;23.80;34.04;98524.13;4839360;28;123208;-92
2022/06/16 02:38:23;;;;;;;2.80;1.93;;;23.30;46.20;;;23.77;34.09;98525.75;4847450;28;119361;-90
2022/06/16 02:41:11;;;;;;;2.27;2.03;;;23.20;46.40;;;23.76;34.12;98526.19;4832513;28;117153;-91
2022/06/16 02:44:04;;;;;;;2.10;1.90;;;23.20;46.50;;;23.72;34.42;98525.38;4839178;28;124074;-91
2022/06/16 02:47:16;;;;;;;2.73;2.50;;;23.20;46.70;;;23.68;34.17;98519.72;4833097;29;122900;-91
2022/06/16 02:50:04;;;;;;;2.20;2.00;;;23.20;46.80;;;23.66;34.55;98518.53;4836033;28;118601;-91
2022/06/16 02:52:40;;;;;;;3.73;2.03;;;23.10;46.70;;;23.64;34.64;98510.44;4818932;29;119219;-91
2022/06/16 02:55:35;;;;;;;2.67;2.30;;;23.10;46.70;;;23.59;34.45;98514.53;4836033;28;124322;-91
2022/06/16 02:58:03;;;;;;;2.30;1.73;;;23.10;46.70;;;23.57;34.20;98514.13;4825252;28;123587;-89
2022/06/16 03:00:44;;;;;;;2.40;2.10;;;23.00;46.50;;;23.55;34.48;98521.38;4835449;28;119673;-91
2022/06/16 03:03:31;;;;;;;2.03;1.80;;;23.00;46.40;;;23.52;34.25;98519.38;4841833;28;118894;-90
2022/06/16 03:05:59;;;;;;;1.80;1.60;;;23.00;46.40;;;23.51;34.23;98520.59;4847818;28;123996;-91
2022/06/16 03:08:30;;;;;;;1.70;1.60;;;22.90;46.30;;;23.49;34.38;98517.38;4834448;28;123807;-90
2022/06/16 03:10:58;;;;;;;3.00;1.73;;;22.90;46.30;;;23.48;34.33;98516.56;4859142;28;119530;-91
2022/06/16 03:13:29;;;;;;;2.90;1.97;;;22.90;46.40;;;23.44;34.34;98517.78;4862696;28;118461;-90
2022/06/16 03:15:59;;;;;;;1.70;1.60;;;22.90;46.50;;;23.41;34.37;98510.94;4851703;28;124341;-89
2022/06/16 03:18:25;;;;;;;2.50;2.17;;;22.90;46.50;;;23.37;34.53;98510.94;4840589;28;123835;-91
2022/06/16 03:20:52;;;;;;;3.20;2.13;;;22.80;46.50;;;23.35;34.36;98509.75;4854308;28;120403;-90
2022/06/16 03:23:20;;;;;;;3.00;1.90;;;22.80;46.60;;;23.33;34.65;98512.97;4857203;28;120244;-90
2022/06/16 03:25:46;;;;;;;2.30;1.90;;;22.80;46.70;;;23.32;34.73;98511.34;4863463;28;122078;-89
2022/06/16 03:28:14;;;;;;;2.03;1.87;;;22.70;46.70;;;23.30;34.78;98522.22;4855617;28;124156;-90
2022/06/16 03:30:41;;;;;;;2.07;1.87;;;22.70;46.70;;;23.28;34.61;98524.63;4856164;28;119371;-90
2022/06/16 03:33:10;;;;;;;2.73;2.40;;;22.70;46.80;;;23.22;34.83;98520.63;4861365;28;119072;-90
2022/06/16 03:35:37;;;;;;;3.50;1.90;;;22.70;46.90;;;23.21;34.76;98530.28;4857533;28;123854;-91
2022/06/16 03:38:08;;;;;;;2.40;1.70;;;22.60;47.00;;;23.19;35.12;98529.91;4855065;28;123127;-91
2022/06/16 03:40:35;;;;;;;2.10;1.87;;;22.60;47.00;;;23.18;34.86;98531.09;4858959;28;119734;-90
2022/06/16 03:43:01;;;;;;;2.50;2.10;;;22.60;47.10;;;23.17;34.80;98540.75;4859712;28;118264;-91
2022/06/16 03:45:27;;;;;;;2.23;2.03;;;22.60;47.20;;;23.14;35.10;98533.13;4841251;28;123451;-91
2022/06/16 03:47:54;;;;;;;1.80;1.70;;;22.60;47.30;;;23.14;34.81;98533.13;4856006;28;123799;-90
2022/06/16 03:50:21;;;;;;;2.37;1.90;;;22.50;47.20;;;23.14;35.25;98541.56;4856554;28;119352;-91
2022/06/16 03:52:48;;;;;;;2.17;1.87;;;22.60;47.30;;;23.15;34.93;98543.16;4853807;28;118175;-91
2022/06/16 03:55:14;;;;;;;4.00;1.93;;;22.50;47.30;;;23.15;35.20;98540.34;4858132;28;124133;-91
2022/06/16 03:57:41;;;;;;;1.90;1.70;;;22.60;47.50;;;23.16;35.19;98547.63;4859691;28;124223;-90
2022/06/16 04:00:09;;;;;;;2.10;1.90;;;22.60;47.60;;;23.15;35.40;98557.25;4857522;28;118639;-90
2022/06/16 04:02:36;;;;;;;3.13;2.60;;;22.50;47.70;;;23.15;35.82;98557.25;4833341;28;118149;-91
2022/06/16 04:05:07;;;;;;;3.23;2.60;;;22.50;48.10;;;23.14;35.55;98566.94;4855406;28;124073;-90
2022/06/16 04:07:35;;;;;;;3.57;2.60;;;22.60;48.40;;;23.16;36.11;98567.34;4854647;28;124267;-90
2022/06/16 04:10:04;;;;;;;2.83;2.23;;;22.60;48.80;;;23.19;36.13;98568.56;4863996;28;120689;-92
2022/06/16 04:12:31;;;;;;;2.70;2.43;;;22.50;49.10;;;23.23;36.48;98572.97;4864001;28;119477;-90
2022/06/16 04:15:00;;;;;;;2.90;2.57;;;22.60;49.40;;;23.25;36.70;98579.00;4843258;28;122052;-91
2022/06/16 04:17:27;;;;;;;2.50;2.30;;;22.60;49.50;;;23.28;36.78;98578.19;4864001;28;124079;-91
2022/06/16 04:22:40;;;;;;;2.83;2.50;;;22.70;50.00;;;23.30;37.31;98581.44;4854039;28;119727;-90
2022/06/16 04:25:12;;;;;;;2.20;2.00;;;22.70;50.90;;;23.32;37.25;98581.84;4854992;28;124146;-92
2022/06/16 04:27:42;;;;;;;3.53;2.20;;;22.70;50.30;;;23.36;37.14;98581.81;4846699;28;123711;-90
2022/06/16 04:30:09;;;;;;;2.83;2.47;;;22.70;50.20;;;23.37;37.09;98578.63;4852856;28;118378;-91
2022/06/16 04:32:37;;;;;;;2.20;2.00;;;22.70;50.20;;;23.37;36.81;98580.59;4860224;28;119664;-91
2022/06/16 04:35:04;;;;;;;2.40;2.20;;;22.70;50.20;;;23.35;37.11;98595.13;4852730;28;123830;-91
2022/06/16 04:37:31;;;;;;;3.37;2.77;;;22.70;50.40;;;23.34;37.54;98585.03;4831331;28;123883;-91
2022/06/16 04:39:57;;;;;;;3.40;2.77;;;22.70;50.90;;;23.31;37.48;98585.06;4861694;28;119410;-91
2022/06/16 04:42:24;;;;;;;4.90;2.67;;;22.70;50.90;;;23.28;37.97;98586.66;4859013;28;118928;-91
2022/06/16 04:44:51;;;;;;;3.53;3.20;;;22.70;51.30;;;23.25;38.50;98587.47;4842236;28;122831;-91
2022/06/16 04:47:18;;;;;;;3.20;2.90;;;22.60;51.70;;;23.19;38.31;98600.38;4858293;28;123470;-89
2022/06/16 04:49:48;;;;;;;3.47;3.00;;;22.60;51.90;;;23.18;38.52;98595.91;4858438;28;119338;-91
2022/06/16 04:52:17;;;;;;;3.10;2.80;;;22.60;52.00;;;23.20;38.81;98595.53;4861875;28;119880;-90
2022/06/16 04:54:48;;;;;;;2.50;2.30;;;22.60;52.20;;;23.23;38.63;98591.91;4858318;28;123316;-90
2022/06/16 04:57:15;;;;;;;2.63;2.37;;;22.60;52.30;;;23.26;38.77;98594.72;4862229;28;123856;-89
2022/06/16 04:59:42;;;;;;;2.60;2.13;;;22.60;52.40;;;23.30;38.46;98603.97;4846026;28;120206;-90
2022/06/16 05:02:09;;;;;;;3.93;2.60;;;22.60;52.50;;;23.32;38.95;98609.19;4863606;28;121003;-90
2022/06/16 05:04:39;;;;;;;3.97;3.23;;;22.60;52.90;;;23.28;38.98;98609.22;4864974;28;123817;-90
2022/06/16 05:07:06;;;;;;;4.50;3.17;;;22.60;53.10;;;23.22;39.28;98599.56;4849226;28;123628;-89
2022/06/16 05:09:33;;;;;;;3.97;3.30;;;22.60;53.30;;;23.20;39.36;98601.16;4866310;28;119446;-89
2022/06/16 05:12:00;;;;;;;5.90;3.43;;;22.60;53.40;;;23.15;39.80;98608.00;4861427;28;118215;-90
2022/06/16 05:14:27;;;;;;;3.67;3.27;;;22.60;54.40;;;23.10;39.49;98625.31;4864090;28;123262;-90
2022/06/16 05:16:53;;;;;;;4.20;3.70;;;22.50;53.70;;;23.09;40.29;98626.53;4851795;28;124018;-91
2022/06/16 05:19:20;;;;;;;4.23;3.57;;;22.50;54.20;;;23.01;40.05;98633.34;4869137;28;119275;-90
2022/06/16 05:21:46;;;;;;;3.03;2.73;;;22.40;54.10;;;23.02;40.18;98618.84;4865564;28;119049;-90
2022/06/16 05:24:13;;;;;;;4.10;2.67;;;22.40;54.10;;;23.07;39.97;98612.03;4860210;28;123574;-92
2022/06/16 05:26:39;;;;;;;3.93;3.20;;;22.40;54.10;;;23.15;39.98;98627.72;4863511;28;122796;-90
2022/06/16 05:29:06;;;;;;;4.70;2.87;;;22.50;54.20;;;23.22;39.80;98619.28;4857967;28;119273;-91
2022/06/16 05:31:52;;;;;;;2.87;2.57;;;22.60;54.50;;;23.28;39.79;98612.03;4848391;28;118861;-89
2022/06/16 05:34:19;;;;;;;4.20;2.70;;;22.60;54.30;;;23.35;39.80;98622.53;4860420;28;124562;-91
2022/06/16 05:36:48;;;;;;;3.30;2.90;;;22.60;54.30;;;23.41;39.56;98629.34;4876802;28;123704;-90
2022/06/16 05:39:15;;;;;;;2.57;2.33;;;22.70;54.30;;;23.47;39.47;98633.38;4880289;28;119060;-91
2022/06/16 05:41:42;;;;;;;3.07;2.57;;;22.80;54.30;;;23.52;39.44;98632.19;4868476;28;118713;-91
2022/06/16 05:44:09;;;;;;;2.90;2.60;;;22.80;54.20;;;23.58;39.21;98636.19;4863811;28;124065;-91
2022/06/16 05:46:36;;;;;;;3.30;2.30;;;22.90;54.20;;;23.64;39.51;98634.56;4858697;28;124182;-91
2022/06/16 05:49:04;;;;;;;2.30;2.10;;;22.90;54.10;;;23.71;39.45;98642.22;4857028;28;120239;-91
2022/06/16 05:51:31;;;;;;;2.77;2.30;;;23.00;54.20;;;23.75;39.30;98638.22;4860802;28;118983;-90
2022/06/16 05:53:57;;;;;;;3.13;2.70;;;23.10;54.20;;;23.77;39.30;98647.06;4862277;28;124568;-92
2022/06/16 05:56:24;;;;;;;3.60;2.60;;;23.10;54.20;;;23.81;39.34;98647.09;4861598;28;124016;-90
2022/06/16 05:58:50;;;;;;;3.40;3.07;;;23.10;54.40;;;23.81;39.54;98650.72;4863931;28;119297;-91
2022/06/16 06:01:17;;;;;;;3.53;3.17;;;23.20;54.40;;;23.82;39.71;98657.16;4860714;28;118872;-92
2022/06/16 06:03:44;;;;;;;6.67;3.23;;;23.20;54.60;;;23.77;39.52;98655.53;4864419;28;123275;-89
2022/06/16 06:06:11;;;;;;;4.03;3.50;;;23.10;54.70;;;23.74;39.72;98659.19;4866862;28;123860;-92
2022/06/16 06:17:09;;;;;;;3.17;2.80;;;23.20;54.70;;;23.93;39.49;98665.59;4869321;28;125535;-90
2022/06/16 06:19:36;;;;;;;2.43;2.23;;;23.20;54.70;;;24.05;39.38;98659.53;4860430;28;119567;-90
2022/06/16 06:22:19;;;;;;;2.97;2.67;;;23.30;54.70;;;24.16;39.10;98651.06;4864517;28;118059;-91
2022/06/16 06:24:53;;;;;;;2.80;2.60;;;23.40;54.60;;;24.26;39.08;98650.22;4863517;28;122945;-91
2022/06/16 06:27:39;;;;;;;3.20;2.47;;;23.50;54.50;;;24.37;39.02;98647.34;4855905;28;123920;-90
2022/06/16 06:30:20;;;;;;;2.50;2.30;;;23.60;54.60;;;24.47;38.68;98649.34;4849543;28;119138;-90
2022/06/16 06:32:47;;;;;;;2.40;2.20;;;23.70;54.40;;;24.60;38.56;98658.19;4819357;28;120114;-92
2022/06/16 06:35:18;;;;;;;2.63;2.20;;;23.80;54.40;;;24.69;38.36;98653.69;4865060;28;123903;-90
2022/06/16 06:37:45;;;;;;;3.00;2.70;;;23.90;54.30;;;24.79;38.19;98656.88;4862081;28;124377;-91
2022/06/16 06:40:38;;;;;;;2.67;2.47;;;24.00;54.10;;;24.85;38.02;98652.38;4849957;28;119698;-90
2022/06/16 06:43:06;;;;;;;4.70;3.00;;;24.10;53.80;;;24.87;37.87;98647.94;4852800;28;120440;-91
2022/06/16 06:45:33;;;;;;;5.77;3.07;;;24.10;53.40;;;24.90;37.77;98649.97;4862982;28;124148;-90
2022/06/16 06:48:01;;;;;;;4.30;2.43;;;24.20;53.20;;;24.93;37.62;98653.94;4862002;28;123882;-90
2022/06/16 06:50:38;;;;;;;2.83;2.40;;;24.20;53.10;;;24.98;37.34;98672.50;4866264;28;119347;-90
2022/06/16 06:53:06;;;;;;;2.93;2.37;;;24.30;53.10;;;25.05;37.40;98673.28;4857156;28;118867;-90
2022/06/16 06:55:57;;;;;;;2.50;2.30;;;24.30;52.90;;;25.18;37.13;98670.00;4858053;28;123149;-91
2022/06/16 06:58:24;;;;;;;3.00;2.20;;;24.40;52.90;;;25.32;36.94;98669.91;4814553;29;122850;-91
2022/06/16 07:00:56;;;;;;;3.53;2.37;;;24.50;52.60;;;25.37;36.88;98665.84;4811322;29;119390;-92
2022/06/16 07:03:22;;;;;;;3.20;2.90;;;24.60;52.30;;;25.35;36.59;98657.75;4808494;29;119137;-92
2022/06/16 07:05:49;;;;;;;3.27;2.97;;;24.60;52.00;;;25.34;36.67;98667.47;4809682;29;123300;-91
2022/06/16 07:08:15;;;;;;;2.67;2.40;;;24.70;52.20;;;25.38;36.78;98668.22;4811845;29;122946;-90
2022/06/16 07:10:42;;;;;;;3.17;2.67;;;24.70;52.10;;;25.41;36.74;98673.06;4811094;29;119500;-91
2022/06/16 07:13:08;;;;;;;5.10;3.10;;;24.70;52.10;;;25.44;36.48;98675.06;4812786;29;119023;-91
2022/06/16 07:15:37;;;;;;;3.10;2.40;;;24.80;52.70;;;25.50;36.40;98693.22;4812490;29;123410;-91
2022/06/16 07:18:06;;;;;;;2.50;2.30;;;24.80;52.00;;;25.61;36.21;98697.97;4807953;29;123670;-90
2022/06/16 07:20:33;;;;;;;2.97;2.60;;;24.90;52.00;;;25.70;36.33;98684.94;4809343;29;119293;-91
2022/06/16 07:23:00;;;;;;;2.77;2.57;;;24.90;52.00;;;25.77;36.55;98690.56;4813443;29;119062;-91
2022/06/16 07:25:27;;;;;;;3.93;2.63;;;25.00;52.00;;;25.84;36.19;98694.56;4794417;29;124071;-90
2022/06/16 07:27:54;;;;;;;2.40;2.20;;;25.10;51.90;;;25.91;36.00;98694.50;4806881;29;124100;-91
2022/06/16 07:30:21;;;;;;;3.17;2.87;;;25.10;51.70;;;25.94;35.87;98700.13;4810475;29;120520;-89
2022/06/16 07:32:50;;;;;;;2.90;2.53;;;25.20;51.60;;;25.98;35.66;98698.09;4793164;29;119959;-90
2022/06/16 07:35:21;;;;;;;2.47;2.27;;;25.30;51.60;;;26.03;36.05;98701.66;4811322;28;123847;-90
2022/06/16 07:37:49;;;;;;;2.70;2.33;;;25.30;51.40;;;26.05;35.56;98702.84;4856329;28;123620;-92
2022/06/16 07:40:18;;;;;;;6.87;2.80;;;25.30;51.30;;;26.07;35.55;98702.44;4850569;28;118153;-91
2022/06/16 07:42:44;;;;;;;3.23;2.67;;;25.40;51.30;;;26.10;35.89;98701.59;4850088;28;119096;-90
2022/06/16 07:45:12;;;;;;;3.10;2.80;;;25.40;51.00;;;26.18;35.24;98711.63;4849180;28;124040;-90
2022/06/16 07:47:39;;;;;;;3.47;2.63;;;25.50;51.00;;;26.30;35.60;98722.41;4855008;28;123055;-91
2022/06/16 07:50:09;;;;;;;2.50;2.30;;;25.50;51.00;;;26.44;35.11;98725.13;4857854;28;119522;-91
2022/06/16 07:52:36;;;;;;;2.93;2.67;;;25.70;50.90;;;26.59;35.27;98722.94;4852105;28;118096;-90
2022/06/16 07:55:05;;;;;;;2.43;2.07;;;25.80;50.90;;;26.68;34.81;98725.28;4841446;28;123526;-90
2022/06/16 07:57:34;;;;;;;3.17;2.60;;;25.90;50.80;;;26.74;34.92;98725.63;4845307;28;123377;-88
2022/06/16 08:00:05;;;;;;;3.83;3.10;;;26.00;50.80;;;26.77;34.85;98741.78;4858239;28;118649;-91
2022/06/16 08:02:31;;;;;;;3.87;2.97;;;26.00;50.80;;;26.82;35.04;98736.44;4859018;28;118972;-91
2022/06/16 08:04:58;;;;;;;3.17;2.90;;;26.10;50.90;;;26.90;35.56;98742.03;4867580;28;124159;-89
2022/06/16 08:07:24;;;;;;;7.63;3.50;;;26.10;51.00;;;26.91;35.42;98744.44;4851928;28;123309;-89
2022/06/16 08:09:51;;;;;;;3.10;2.73;;;26.20;51.20;;;26.92;35.16;98736.72;4865627;28;118724;-90
2022/06/16 08:12:19;;;;;;;5.60;3.20;;;26.30;51.10;;;26.94;35.27;98742.78;4867454;28;118921;-90
2022/06/16 08:14:48;;;;;;;5.13;3.13;;;26.30;51.00;;;26.95;35.50;98744.38;4867319;28;124048;-90
2022/06/16 08:17:21;;;;;;;7.67;2.87;;;26.30;50.80;;;26.96;35.28;98741.13;4861124;28;123750;-89
2022/06/16 08:19:48;;;;;;;3.23;2.90;;;26.30;50.70;;;26.98;35.49;98733.00;4849076;28;120293;-90
2022/06/16 08:22:14;;;;;;;3.80;3.40;;;26.40;50.70;;;27.00;35.24;98736.22;4845221;28;118985;-90
2022/06/16 08:24:41;;;;;;;3.83;3.43;;;26.40;50.60;;;27.03;34.96;98743.09;4859180;28;123664;-91
2022/06/16 08:27:09;;;;;;;3.83;3.50;;;26.40;50.60;;;27.06;34.93;98736.56;4866090;28;124026;-90
2022/06/16 08:29:40;;;;;;;4.20;3.50;;;26.50;50.60;;;27.07;34.68;98755.97;4824790;28;120047;-92
2022/06/16 08:32:08;;;;;;;6.17;3.40;;;26.40;50.10;;;27.08;34.79;98751.09;4861038;28;118894;-89
2022/06/16 08:34:34;;;;;;;7.87;3.40;;;26.50;50.00;;;27.11;34.83;98753.09;4834405;28;123075;-89
2022/06/16 08:37:01;;;;;;;4.33;3.03;;;26.50;50.00;;;27.15;34.11;98762.34;4859630;28;124117;-89
2022/06/16 08:39:27;;;;;;;3.60;3.27;;;26.60;49.70;;;27.13;34.58;98758.34;4858255;28;119361;-89
2022/06/16 08:42:09;;;;;;;4.70;3.00;;;26.60;49.40;;;27.12;34.20;98754.69;4863571;28;119243;-89
2022/06/16 08:45:19;;;;;;;6.50;3.10;;;26.60;49.50;;;27.07;34.07;98758.00;4862744;28;123545;-90
2022/06/16 08:47:57;;;;;;;3.43;2.73;;;26.60;48.90;;;27.04;33.79;98771.00;4862165;28;123859;-89
2022/06/16 08:51:04;;;;;;;3.97;3.00;;;26.60;48.70;;;26.96;33.51;98763.03;4866400;28;119905;-90
2022/06/16 08:54:27;;;;;;;3.23;2.50;;;26.60;47.80;;;26.88;33.34;98751.75;4846099;28;118962;-89
2022/06/16 08:57:01;;;;;;;3.40;3.00;;;26.50;48.20;;;26.90;33.34;98754.19;4820079;28;124586;-90
2022/06/16 08:59:44;;;;;;;3.90;3.20;;;26.40;47.40;;;26.95;33.06;98761.41;4861950;28;123389;-90
2022/06/16 09:02:40;;;;;;;4.50;3.20;;;26.40;47.40;;;27.02;33.17;98767.00;4863455;28;119280;-90
2022/06/16 09:05:44;;;;;;;3.83;3.10;;;26.60;47.50;;;27.06;32.62;98768.56;4846054;28;119071;-89
2022/06/16 09:08:25;;;;;;;3.20;2.70;;;26.50;47.10;;;27.14;32.90;98769.28;4845260;28;123982;-90
2022/06/16 09:11:06;;;;;;;5.33;3.00;;;26.60;47.20;;;27.21;32.63;98777.69;4866425;28;124032;-89
2022/06/16 09:13:57;;;;;;;4.03;2.37;;;26.60;47.00;;;27.26;32.79;98762.25;4860736;28;119670;-91
2022/06/16 09:16:42;;;;;;;3.60;2.63;;;26.70;47.10;;;27.36;32.34;98769.81;4852205;28;120474;-89
2022/06/16 09:19:41;;;;;;;4.07;2.60;;;26.70;47.00;;;27.45;32.19;98777.78;4865962;28;124731;-91
2022/06/16 09:23:00;;;;;;;5.27;3.17;;;26.90;47.10;;;27.46;32.59;98773.72;4835024;28;123624;-89
2022/06/16 09:26:15;;;;;;;3.53;3.13;;;26.90;47.00;;;27.49;32.99;98781.38;4835755;28;119386;-89
2022/06/16 09:29:00;;;;;;;4.27;3.60;;;27.00;47.40;;;27.53;33.03;98784.97;4866497;28;119275;-91
2022/06/16 09:32:01;;;;;;;3.83;3.00;;;27.00;47.80;;;27.53;33.06;98779.28;4849519;28;122465;-88
2022/06/16 09:34:34;;;;;;;5.63;3.83;;;27.00;47.90;;;27.53;33.04;98790.63;4861284;28;123447;-90
2022/06/16 09:37:15;;;;;;;4.57;3.70;;;27.00;47.90;;;27.56;32.87;98801.13;4863028;28;119459;-90
2022/06/16 09:39:50;;;;;;;5.50;3.73;;;27.00;47.80;;;27.57;32.98;98796.28;4837024;28;120294;-89
2022/06/16 09:42:32;;;;;;;6.20;3.13;;;27.10;47.90;;;27.58;33.06;98793.00;4860433;28;124295;-89
2022/06/16 09:45:17;;;;;;;4.17;3.47;;;27.10;47.90;;;27.57;33.38;98797.09;4846305;28;123903;-89
2022/06/16 09:48:03;;;;;;;4.87;3.50;;;27.10;47.90;;;27.61;33.17;98791.34;4853179;28;118516;-90
2022/06/16 09:50:53;;;;;;;4.00;3.40;;;27.10;48.10;;;27.61;33.08;98789.31;4849197;28;118948;-89
2022/06/16 09:53:24;;;;;;;5.83;3.03;;;27.10;48.20;;;27.63;33.11;98786.84;4846536;28;124546;-88
2022/06/16 09:56:30;;;;;;;6.00;3.30;;;27.10;48.20;;;27.61;33.30;98800.66;4842948;28;123686;-88
2022/06/16 09:59:13;;;;;;;5.63;3.40;;;27.10;48.20;;;27.60;33.53;98799.06;4880394;28;119287;-89
2022/06/16 10:02:24;;;;;;;5.17;2.90;;;27.10;48.40;;;27.63;33.57;98806.72;4865622;28;118979;-89
2022/06/16 10:04:55;;;;;;;3.67;3.07;;;27.10;48.40;;;27.72;33.76;98812.66;4862439;28;123894;-90
2022/06/16 10:07:42;;;;;;;2.87;2.57;;;27.20;48.60;;;27.76;33.61;98812.63;4859999;28;123067;-89
2022/06/16 10:10:51;;;;;;;5.57;3.30;;;27.20;48.40;;;27.78;33.76;98807.31;4844871;28;120280;-86
2022/06/16 10:13:50;;;;;;;3.60;3.00;;;27.30;48.50;;;27.79;33.70;98813.81;4867175;28;120835;-88
2022/06/16 10:16:25;;;;;;;4.67;3.13;;;27.30;48.50;;;27.82;33.58;98827.97;4836048;28;123092;-87
2022/06/16 10:18:51;;;;;;;6.10;3.17;;;27.30;48.80;;;27.86;33.29;98813.69;4838316;28;123324;-88
2022/06/16 10:21:18;;;;;;;10.23;3.60;;;27.30;48.60;;;27.87;33.27;98833.16;4868406;28;119326;-88
2022/06/16 10:23:51;;;;;;;6.70;3.10;;;27.30;48.40;;;27.87;33.48;98826.69;4870308;28;118081;-88
2022/06/16 10:26:18;;;;;;;4.70;3.10;;;27.40;48.60;;;27.86;33.70;98825.88;4839188;28;122844;-88
2022/06/16 10:28:50;;;;;;;4.00;3.00;;;27.40;49.20;;;27.87;33.67;98824.66;4863976;28;124989;-87
2022/06/16 10:31:45;;;;;;;3.27;2.97;;;27.40;48.60;;;27.84;33.88;98813.34;4865972;28;118371;-88
2022/06/16 10:34:38;;;;;;;5.63;3.10;;;27.40;48.60;;;27.87;33.55;98827.47;4867172;28;119271;-87
2022/06/16 10:37:18;;;;;;;3.60;2.67;;;27.40;48.80;;;27.92;33.92;98834.72;4864100;28;124608;-89
2022/06/16 10:39:54;;;;;;;4.17;2.70;;;27.40;48.60;;;27.98;33.61;98844.38;4838378;28;123386;-88
2022/06/16 10:42:26;;;;;;;6.60;3.10;;;27.40;48.60;;;28.00;33.29;98846.78;4838621;28;118513;-87
2022/06/16 10:45:20;;;;;;;6.90;3.60;;;27.50;48.60;;;27.97;33.55;98854.13;4861964;28;119598;-87
2022/06/16 10:48:04;;;;;;;5.70;3.20;;;27.50;48.50;;;27.97;33.43;98854.13;4872114;28;123750;-90
2022/06/16 10:50:47;;;;;;;5.77;3.00;;;27.50;48.40;;;27.96;33.37;98843.97;4852870;28;122836;-86
2022/06/16 10:53:24;;;;;;;6.13;3.20;;;27.50;48.30;;;27.98;33.36;98862.19;4852838;28;119848;-84
2022/06/16 10:55:57;;;;;;;5.53;2.73;;;27.50;48.20;;;28.01;33.15;98854.84;4861469;28;119047;-87
2022/06/16 10:58:31;;;;;;;6.90;2.90;;;27.50;48.10;;;28.05;32.95;98864.16;4853062;28;126229;-87
2022/06/16 11:01:17;;;;;;;3.60;2.93;;;27.50;47.70;;;28.09;33.07;98862.03;4846143;28;123357;-93
2022/06/16 11:03:53;;;;;;;3.13;2.83;;;27.60;47.90;;;28.13;33.36;98868.47;4847696;28;119873;-94